createdAt,value
2019-01-22T00:00:22.641Z,58.20
2019-01-22T00:02:51.466Z,58.40
2019-01-22T00:05:19.972Z,58.90
2019-01-22T00:07:48.374Z,58.90
2019-01-22T00:10:16.959Z,58.70
2019-01-22T00:12:45.436Z,58.80
2019-01-22T00:15:14.409Z,59.10
2019-01-22T00:17:43.193Z,59.30
2019-01-22T00:20:13.566Z,59.70
2019-01-22T00:22:42.011Z,60.00
2019-01-22T00:25:12.165Z,60.20
2019-01-22T00:27:40.826Z,60.20
2019-01-22T00:30:14.971Z,59.70
2019-01-22T00:32:43.429Z,59.10
2019-01-22T00:35:12.041Z,59.20
2019-01-22T00:37:40.516Z,59.00
2019-01-22T00:40:11.505Z,59.10
2019-01-22T00:42:39.984Z,58.70
2019-01-22T00:45:08.668Z,58.60
2019-01-22T00:47:37.190Z,59.20
2019-01-22T00:50:09.278Z,58.20
2019-01-22T00:52:37.770Z,58.90
2019-01-22T00:55:09.637Z,58.90
2019-01-22T00:57:38.185Z,58.80
2019-01-22T01:00:09.717Z,58.50
2019-01-22T01:02:38.226Z,58.50
2019-01-22T01:05:08.117Z,58.90
2019-01-22T01:07:36.621Z,59.20
2019-01-22T01:10:08.863Z,59.30
2019-01-22T01:12:37.672Z,60.30
2019-01-22T01:15:08.824Z,61.10
2019-01-22T01:17:37.237Z,61.50
2019-01-22T01:20:14.435Z,61.30
2019-01-22T01:22:43.018Z,61.70
2019-01-22T01:25:14.923Z,62.00
2019-01-22T01:27:43.591Z,61.90
2019-01-22T01:30:15.035Z,62.40
2019-01-22T01:32:43.504Z,62.50
2019-01-22T01:35:12.084Z,62.40
2019-01-22T01:37:40.591Z,62.30
2019-01-22T01:40:12.390Z,61.80
2019-01-22T01:42:40.870Z,61.00
2019-01-22T01:45:09.967Z,61.20
2019-01-22T01:47:38.365Z,61.70
2019-01-22T01:50:12.321Z,61.90
2019-01-22T01:52:40.740Z,62.00
2019-01-22T01:55:11.075Z,61.70
2019-01-22T01:57:39.521Z,61.30
2019-01-22T02:00:13.526Z,61.40
2019-01-22T02:02:42.016Z,61.70
2019-01-22T02:05:10.448Z,61.80
2019-01-22T02:07:38.930Z,61.90
2019-01-22T02:10:10.993Z,62.20
2019-01-22T02:12:45.453Z,62.00
2019-01-22T02:15:19.619Z,62.20
2019-01-22T02:18:00.265Z,61.70
2019-01-22T02:20:43.676Z,61.70
2019-01-22T02:23:15.270Z,61.50
2019-01-22T02:25:55.555Z,61.70
2019-01-22T02:28:29.749Z,62.00
2019-01-22T02:31:18.688Z,61.80
2019-01-22T02:33:56.412Z,61.80
2019-01-22T02:36:31.100Z,62.00
2019-01-22T02:39:20.736Z,61.60
2019-01-22T02:41:55.104Z,61.40
2019-01-22T02:44:29.291Z,61.70
2019-01-22T02:47:03.789Z,61.20
2019-01-22T02:49:53.977Z,61.10
2019-01-22T02:52:37.565Z,61.20
2019-01-22T02:55:11.894Z,61.10
2019-01-22T02:58:14.900Z,61.10
2019-01-22T03:00:58.228Z,61.10
2019-01-22T03:03:35.481Z,61.10
2019-01-22T03:06:09.633Z,61.00
2019-01-22T03:09:02.301Z,61.30
2019-01-22T03:11:36.329Z,62.70
2019-01-22T03:14:10.708Z,62.70
2019-01-22T03:16:53.832Z,62.60
2019-01-22T03:19:30.797Z,62.70
2019-01-22T03:22:05.009Z,62.90
2019-01-22T03:24:48.544Z,63.00
2019-01-22T03:27:41.013Z,63.40
2019-01-22T03:30:21.154Z,63.10
2019-01-22T03:32:55.606Z,63.10
2019-01-22T03:35:39.210Z,62.90
2019-01-22T03:38:33.634Z,62.80
2019-01-22T03:41:25.832Z,62.40
2019-01-22T03:44:09.252Z,62.00
2019-01-22T03:46:40.933Z,62.50
2019-01-22T03:49:15.216Z,62.60
2019-01-22T03:51:55.606Z,62.70
2019-01-22T03:54:45.054Z,63.20
2019-01-22T03:57:22.654Z,62.60
2019-01-22T03:59:51.054Z,62.80
2019-01-22T04:02:20.283Z,62.60
2019-01-22T04:04:48.711Z,62.60
2019-01-22T04:07:17.139Z,63.20
2019-01-22T04:09:46.191Z,63.00
2019-01-22T04:12:14.684Z,63.10
2019-01-22T04:14:43.086Z,63.10
2019-01-22T04:17:11.521Z,62.60
2019-01-22T04:19:41.467Z,62.30
2019-01-22T04:22:12.275Z,62.80
2019-01-22T04:24:43.754Z,63.10
2019-01-22T04:27:27.289Z,63.40
2019-01-22T04:29:58.814Z,63.20
2019-01-22T04:32:30.498Z,63.20
2019-01-22T04:35:11.049Z,64.20
2019-01-22T04:38:02.141Z,64.20
2019-01-22T04:40:48.512Z,64.10
2019-01-22T04:43:31.977Z,64.00
2019-01-22T04:46:06.507Z,63.90
2019-01-22T04:48:56.250Z,64.40
2019-01-22T04:51:42.988Z,63.90
2019-01-22T04:54:20.377Z,63.50
2019-01-22T04:56:58.078Z,63.90
2019-01-22T04:59:59.679Z,64.60
2019-01-22T05:02:39.730Z,64.90
2019-01-22T05:05:22.953Z,65.00
2019-01-22T05:08:00.433Z,65.10
2019-01-22T05:10:58.781Z,64.50
2019-01-22T05:13:33.007Z,64.80
2019-01-22T05:16:19.757Z,64.90
2019-01-22T05:18:54.754Z,65.00
2019-01-22T05:21:38.401Z,65.20
2019-01-22T05:24:26.714Z,65.50
2019-01-22T05:27:16.387Z,65.20
2019-01-22T05:30:04.224Z,65.00
2019-01-22T05:32:38.420Z,65.00
2019-01-22T05:35:18.089Z,66.30
2019-01-22T05:37:49.607Z,65.90
2019-01-22T05:40:30.285Z,66.10
2019-01-22T05:43:17.239Z,66.60
2019-01-22T05:45:54.569Z,67.60
2019-01-22T05:48:35.334Z,67.80
2019-01-22T05:51:15.483Z,68.90
2019-01-22T05:53:52.894Z,69.60
2019-01-22T05:56:39.394Z,69.10
2019-01-22T05:59:32.104Z,69.00
2019-01-22T06:02:06.900Z,69.50
2019-01-22T06:04:47.231Z,69.80
2019-01-22T06:07:30.784Z,70.10
2019-01-22T06:10:02.324Z,70.40
2019-01-22T06:12:59.520Z,70.10
2019-01-22T06:15:37.141Z,70.90
2019-01-22T06:18:19.802Z,71.70
2019-01-22T06:21:06.250Z,72.70
2019-01-22T06:23:40.409Z,73.50
2019-01-22T06:26:17.590Z,74.30
2019-01-22T06:28:54.782Z,74.00
2019-01-22T06:31:46.934Z,73.90
2019-01-22T06:34:23.993Z,73.00
2019-01-22T06:37:07.919Z,72.90
2019-01-22T06:39:42.365Z,71.40
2019-01-22T06:42:17.164Z,71.40
2019-01-22T06:44:48.653Z,71.20
2019-01-22T06:47:23.583Z,71.60
2019-01-22T06:49:55.521Z,70.90
2019-01-22T06:52:46.302Z,69.50
2019-01-22T06:55:17.779Z,69.80
2019-01-22T06:57:55.233Z,70.70
2019-01-22T07:00:49.175Z,71.90
2019-01-22T07:03:32.573Z,71.00
2019-01-22T07:06:09.703Z,70.00
2019-01-22T07:09:06.937Z,68.90
2019-01-22T07:11:44.041Z,68.80
2019-01-22T07:14:36.427Z,69.30
2019-01-22T07:17:32.234Z,69.50
2019-01-22T07:20:15.505Z,69.60
2019-01-22T07:22:49.519Z,68.90
2019-01-22T07:25:26.695Z,68.10
2019-01-22T07:28:17.814Z,65.30
2019-01-22T07:30:57.365Z,64.70
2019-01-22T07:33:31.578Z,63.90
2019-01-22T07:36:18.103Z,63.50
2019-01-22T07:38:52.659Z,63.50
2019-01-22T07:41:36.335Z,63.60
2019-01-22T07:44:10.657Z,64.50
2019-01-22T07:47:14.205Z,66.20
2019-01-22T07:49:51.627Z,67.10
2019-01-22T07:52:39.667Z,68.50
2019-01-22T07:55:22.517Z,69.00
2019-01-22T07:58:02.853Z,70.00
2019-01-22T08:00:47.034Z,70.30
2019-01-22T08:03:53.453Z,70.40
2019-01-22T08:06:33.100Z,69.30
2019-01-22T08:09:10.596Z,68.40
2019-01-22T08:11:54.152Z,69.40
2019-01-22T08:14:42.353Z,70.20
2019-01-22T08:17:19.664Z,70.00
2019-01-22T08:20:21.419Z,68.40
2019-01-22T08:22:58.865Z,67.80
2019-01-22T08:25:48.414Z,67.10
2019-01-22T08:28:34.706Z,65.60
2019-01-22T08:31:18.045Z,66.00
2019-01-22T08:34:01.500Z,67.10
2019-01-22T08:36:35.688Z,66.60
2019-01-22T08:39:31.448Z,67.90
2019-01-22T08:42:08.365Z,69.20
2019-01-22T08:44:51.629Z,69.60
2019-01-22T08:47:32.225Z,70.50
2019-01-22T08:50:15.516Z,70.50
2019-01-22T08:52:50.186Z,70.30
2019-01-22T08:55:27.717Z,70.30
2019-01-22T08:58:14.405Z,67.90
2019-01-22T09:01:09.703Z,68.20
2019-01-22T09:03:44.257Z,68.40
2019-01-22T09:06:21.880Z,69.30
2019-01-22T09:09:01.642Z,70.10
2019-01-22T09:11:54.714Z,69.50
2019-01-22T09:14:35.012Z,69.60
2019-01-22T09:17:33.417Z,68.60
2019-01-22T09:20:13.816Z,69.80
2019-01-22T09:22:54.378Z,70.30
2019-01-22T09:25:28.722Z,70.30
2019-01-22T09:28:19.669Z,69.80
2019-01-22T09:31:00.196Z,69.90
2019-01-22T09:33:37.201Z,70.80
2019-01-22T09:36:11.387Z,70.20
2019-01-22T09:38:39.889Z,69.10
2019-01-22T09:41:08.320Z,69.00
2019-01-22T09:43:36.745Z,68.60
2019-01-22T09:46:05.635Z,68.20
2019-01-22T09:48:34.052Z,67.60
2019-01-22T09:51:02.449Z,68.10
2019-01-22T09:53:30.881Z,66.70
2019-01-22T09:56:00.715Z,66.00
2019-01-22T09:58:29.624Z,65.50
2019-01-22T10:00:58.040Z,64.80
2019-01-22T10:03:26.447Z,63.50
2019-01-22T10:05:55.243Z,63.70
2019-01-22T10:08:23.749Z,63.20
2019-01-22T10:10:52.154Z,63.90
2019-01-22T10:13:20.630Z,63.80
2019-01-22T10:15:49.174Z,63.20
2019-01-22T10:18:17.589Z,62.80
2019-01-22T10:20:46.042Z,62.50
2019-01-22T10:23:14.600Z,62.20
2019-01-22T10:25:43.034Z,62.30
2019-01-22T10:28:11.826Z,62.60
2019-01-22T10:30:40.214Z,62.80
2019-01-22T10:33:09.075Z,63.10
2019-01-22T10:35:37.574Z,62.80
2019-01-22T10:38:06.009Z,62.90
2019-01-22T10:40:34.518Z,63.30
2019-01-22T10:43:09.002Z,63.50
2019-01-22T10:45:33.083Z,62.40
2019-01-22T10:48:01.594Z,62.40
2019-01-22T10:50:29.990Z,62.00
2019-01-22T10:52:58.424Z,61.20
2019-01-22T10:55:26.837Z,59.60
2019-01-22T10:57:55.261Z,59.80
2019-01-22T11:00:29.727Z,60.80
2019-01-22T11:02:58.217Z,61.00
2019-01-22T11:05:32.287Z,60.80
2019-01-22T11:08:00.707Z,61.50
2019-01-22T11:10:29.129Z,61.30
2019-01-22T11:12:57.639Z,61.00
2019-01-22T11:15:28.068Z,60.60
2019-01-22T11:17:56.230Z,60.20
2019-01-22T11:20:29.115Z,60.50
2019-01-22T11:22:57.553Z,60.90
2019-01-22T11:25:28.948Z,60.00
2019-01-22T11:27:57.447Z,60.00
2019-01-22T11:30:26.007Z,60.70
2019-01-22T11:32:54.414Z,61.80
2019-01-22T11:35:24.487Z,63.30
2019-01-22T11:37:53.121Z,64.00
2019-01-22T11:40:43.037Z,64.20
2019-01-22T11:43:11.870Z,65.20
2019-01-22T11:45:40.663Z,65.80
2019-01-22T11:48:09.538Z,65.20
2019-01-22T11:50:38.028Z,64.50
2019-01-22T11:53:06.744Z,64.30
2019-01-22T11:55:35.262Z,64.10
2019-01-22T11:58:03.842Z,64.90
2019-01-22T12:00:42.344Z,65.40
2019-01-22T12:03:11.029Z,65.10
2019-01-22T12:05:39.455Z,63.50
2019-01-22T12:08:08.468Z,63.00
2019-01-22T12:10:36.912Z,61.80
2019-01-22T12:13:05.574Z,62.40
2019-01-22T12:15:34.121Z,60.90
2019-01-22T12:18:02.585Z,61.60
2019-01-22T12:20:37.277Z,62.70
2019-01-22T12:23:05.836Z,62.80
2019-01-22T12:25:34.278Z,62.30
2019-01-22T12:28:02.717Z,62.80
2019-01-22T12:30:36.365Z,62.80
2019-01-22T12:33:06.066Z,62.40
2019-01-22T12:35:34.546Z,61.90
2019-01-22T12:38:03.062Z,61.50
2019-01-22T12:40:31.531Z,60.80
2019-01-22T12:42:59.957Z,61.10
2019-01-22T12:45:31.484Z,61.00
2019-01-22T12:47:59.917Z,61.10
2019-01-22T12:50:28.703Z,62.20
2019-01-22T12:52:57.429Z,62.70
2019-01-22T12:55:25.936Z,63.10
2019-01-22T12:57:54.584Z,63.30
2019-01-22T13:00:31.794Z,62.50
2019-01-22T13:03:00.266Z,60.00
2019-01-22T13:05:34.510Z,59.80
2019-01-22T13:08:03.003Z,59.90
2019-01-22T13:10:31.443Z,58.40
2019-01-22T13:13:00.029Z,58.10
2019-01-22T13:15:28.569Z,58.00
2019-01-22T13:17:57.498Z,57.40
2019-01-22T13:20:26.088Z,57.20
2019-01-22T13:22:54.504Z,56.70
2019-01-22T13:25:23.023Z,57.20
2019-01-22T13:27:51.456Z,58.40
2019-01-22T13:30:25.286Z,57.80
2019-01-22T13:32:53.705Z,58.70
2019-01-22T13:35:22.505Z,58.90
2019-01-22T13:37:51.067Z,59.30
2019-01-22T13:40:19.465Z,59.90
2019-01-22T13:42:48.047Z,60.40
2019-01-22T13:45:21.951Z,60.00
2019-01-22T13:47:51.440Z,59.30
2019-01-22T13:50:21.406Z,58.20
2019-01-22T13:52:49.835Z,57.80
2019-01-22T13:55:25.225Z,57.30
2019-01-22T13:57:53.786Z,56.90
2019-01-22T14:00:24.397Z,58.40
2019-01-22T14:02:53.789Z,58.60
2019-01-22T14:05:22.412Z,59.80
2019-01-22T14:07:51.093Z,59.90
2019-01-22T14:10:19.579Z,59.70
2019-01-22T14:12:48.202Z,59.30
2019-01-22T14:15:19.644Z,59.90
2019-01-22T14:17:48.298Z,60.30
2019-01-22T14:20:17.906Z,59.50
2019-01-22T14:22:46.456Z,59.50
2019-01-22T14:25:19.969Z,60.80
2019-01-22T14:27:48.797Z,62.00
2019-01-22T14:30:23.203Z,62.30
2019-01-22T14:32:51.633Z,63.40
2019-01-22T14:35:20.751Z,63.80
2019-01-22T14:37:50.991Z,63.70
2019-01-22T14:40:19.682Z,63.50
2019-01-22T14:42:48.379Z,64.20
2019-01-22T14:45:18.792Z,63.90
2019-01-22T14:47:47.375Z,64.80
2019-01-22T14:50:18.559Z,64.30
2019-01-22T14:52:48.600Z,64.50
2019-01-22T14:55:17.121Z,65.40
2019-01-22T14:57:46.402Z,65.60
2019-01-22T15:00:20.450Z,63.90
2019-01-22T15:02:48.948Z,63.70
2019-01-22T15:05:17.566Z,62.60
2019-01-22T15:07:46.037Z,62.50
2019-01-22T15:10:16.850Z,62.50
2019-01-22T15:12:47.502Z,62.70
2019-01-22T15:15:17.756Z,63.60
2019-01-22T15:17:46.355Z,64.10
2019-01-22T15:20:19.753Z,64.10
2019-01-22T15:22:48.410Z,64.50
2019-01-22T15:25:16.978Z,64.50
2019-01-22T15:27:45.454Z,64.40
2019-01-22T15:30:16.294Z,64.50
2019-01-22T15:32:44.757Z,64.80
2019-01-22T15:35:13.357Z,66.00
2019-01-22T15:37:41.937Z,66.00
2019-01-22T15:40:13.477Z,66.00
2019-01-22T15:42:41.973Z,65.50
2019-01-22T15:45:10.803Z,66.20
2019-01-22T15:47:39.294Z,65.10
2019-01-22T15:50:16.726Z,66.30
2019-01-22T15:52:45.166Z,67.10
2019-01-22T15:55:22.197Z,67.60
2019-01-22T15:57:50.655Z,67.50
2019-01-22T16:00:21.439Z,66.40
2019-01-22T16:02:50.005Z,66.00
2019-01-22T16:05:18.889Z,65.60
2019-01-22T16:07:47.306Z,66.10
2019-01-22T16:10:15.909Z,66.10
2019-01-22T16:12:44.408Z,66.30
2019-01-22T16:15:15.713Z,66.30
2019-01-22T16:17:44.312Z,66.30
2019-01-22T16:20:15.933Z,65.50
2019-01-22T16:22:44.392Z,66.00
2019-01-22T16:25:13.338Z,65.30
2019-01-22T16:27:41.833Z,65.10
2019-01-22T16:30:13.518Z,65.70
2019-01-22T16:32:41.947Z,65.20
2019-01-22T16:35:12.836Z,65.20
2019-01-22T16:37:41.257Z,65.40
2019-01-22T16:40:12.479Z,65.30
2019-01-22T16:42:41.269Z,65.20
2019-01-22T16:45:21.342Z,65.20
2019-01-22T16:47:49.796Z,64.30
2019-01-22T16:50:18.230Z,64.10
2019-01-22T16:52:46.893Z,64.80
2019-01-22T16:55:18.500Z,65.60
2019-01-22T16:57:46.930Z,66.20
2019-01-22T17:00:23.867Z,65.60
2019-01-22T17:02:52.449Z,65.10
2019-01-22T17:05:20.969Z,64.80
2019-01-22T17:07:49.452Z,64.60
2019-01-22T17:10:19.413Z,64.60
2019-01-22T17:12:48.249Z,64.50
2019-01-22T17:15:17.366Z,63.80
2019-01-22T17:17:45.824Z,63.00
2019-01-22T17:20:23.401Z,62.30
2019-01-22T17:22:52.083Z,61.90
2019-01-22T17:25:20.756Z,61.80
2019-01-22T17:27:49.224Z,62.20
2019-01-22T17:30:20.340Z,62.10
2019-01-22T17:32:50.567Z,61.70
2019-01-22T17:35:19.024Z,62.10
2019-01-22T17:37:47.466Z,62.00
2019-01-22T17:40:16.452Z,62.60
2019-01-22T17:42:45.101Z,62.90
2019-01-22T17:45:13.674Z,61.90
2019-01-22T17:47:42.097Z,62.40
2019-01-22T17:50:15.826Z,62.50
2019-01-22T17:52:44.224Z,62.70
2019-01-22T17:55:13.628Z,63.30
2019-01-22T17:57:42.109Z,63.60
2019-01-22T18:00:15.377Z,63.40
2019-01-22T18:02:43.848Z,63.80
2019-01-22T18:05:14.609Z,64.30
2019-01-22T18:07:43.053Z,65.20
2019-01-22T18:10:14.290Z,63.60
2019-01-22T18:12:42.697Z,63.70
2019-01-22T18:15:16.091Z,63.70
2019-01-22T18:17:44.610Z,63.00
2019-01-22T18:20:18.638Z,62.80
2019-01-22T18:22:47.314Z,61.90
2019-01-22T18:25:18.616Z,61.70
2019-01-22T18:27:47.081Z,61.80
2019-01-22T18:30:21.590Z,61.40
2019-01-22T18:32:50.078Z,61.00
2019-01-22T18:35:38.004Z,60.30
2019-01-22T18:38:04.714Z,60.40
2019-01-22T18:40:33.732Z,60.80
2019-01-22T18:43:03.030Z,60.50
2019-01-22T18:45:31.477Z,61.00
2019-01-22T18:48:00.098Z,60.90
2019-01-22T18:50:28.582Z,61.30
2019-01-22T18:52:57.229Z,62.10
2019-01-22T18:55:25.782Z,62.90
2019-01-22T18:57:54.319Z,62.10
2019-01-22T19:00:24.643Z,61.40
2019-01-22T19:02:53.814Z,62.50
2019-01-22T19:05:22.725Z,61.90
2019-01-22T19:07:51.274Z,61.80
2019-01-22T19:10:25.762Z,62.00
2019-01-22T19:12:54.324Z,62.70
2019-01-22T19:15:23.397Z,61.50
2019-01-22T19:17:52.294Z,61.40
2019-01-22T19:20:20.825Z,62.30
2019-01-22T19:22:49.336Z,62.10
2019-01-22T19:25:26.262Z,62.00
2019-01-22T19:27:54.789Z,62.20
2019-01-22T19:30:31.445Z,62.40
2019-01-22T19:32:59.869Z,62.90
2019-01-22T19:35:28.357Z,63.90
2019-01-22T19:37:56.845Z,64.10
2019-01-22T19:40:25.266Z,63.00
2019-01-22T19:42:53.709Z,62.20
2019-01-22T19:45:27.720Z,62.10
2019-01-22T19:47:56.135Z,62.70
2019-01-22T19:50:24.545Z,62.50
2019-01-22T19:52:53.002Z,63.20
2019-01-22T19:55:21.496Z,63.40
2019-01-22T19:57:49.980Z,63.70
2019-01-22T20:00:30.645Z,63.90
2019-01-22T20:02:59.638Z,64.40
2019-01-22T20:05:29.712Z,64.30
2019-01-22T20:07:58.163Z,64.70
2019-01-22T20:10:26.559Z,65.10
2019-01-22T20:12:55.058Z,64.80
2019-01-22T20:15:23.930Z,64.30
2019-01-22T20:17:52.349Z,63.80
2019-01-22T20:20:21.206Z,63.90
2019-01-22T20:22:49.641Z,64.40
2019-01-22T20:25:18.510Z,64.80
2019-01-22T20:27:48.208Z,64.00
2019-01-22T20:30:20.107Z,63.60
2019-01-22T20:32:48.680Z,63.40
2019-01-22T20:35:17.081Z,63.90
2019-01-22T20:37:45.508Z,64.20
2019-01-22T20:40:15.304Z,63.90
2019-01-22T20:42:43.798Z,63.40
2019-01-22T20:45:20.901Z,63.10
2019-01-22T20:47:49.337Z,63.20
2019-01-22T20:50:19.470Z,63.60
2019-01-22T20:52:48.141Z,63.50
2019-01-22T20:55:19.080Z,64.40
2019-01-22T20:57:47.563Z,64.40
2019-01-22T21:00:21.131Z,64.60
2019-01-22T21:02:50.669Z,64.60
2019-01-22T21:05:21.137Z,64.70
2019-01-22T21:07:49.919Z,65.20
2019-01-22T21:10:23.638Z,64.80
2019-01-22T21:12:52.090Z,64.80
2019-01-22T21:15:20.530Z,64.30
2019-01-22T21:17:48.974Z,63.50
2019-01-22T21:20:19.969Z,63.60
2019-01-22T21:22:48.487Z,63.40
2019-01-22T21:25:19.648Z,63.70
2019-01-22T21:27:48.129Z,63.50
2019-01-22T21:30:19.681Z,64.40
2019-01-22T21:32:48.422Z,64.30
2019-01-22T21:35:16.858Z,64.50
2019-01-22T21:37:45.272Z,64.70
2019-01-22T21:40:14.965Z,64.90
2019-01-22T21:42:43.681Z,64.20
2019-01-22T21:45:18.489Z,64.50
2019-01-22T21:47:46.965Z,64.90
2019-01-22T21:50:16.457Z,64.80
2019-01-22T21:52:45.086Z,64.50
2019-01-22T21:55:18.790Z,64.50
2019-01-22T21:57:47.262Z,64.60
2019-01-22T22:00:21.137Z,64.80
2019-01-22T22:02:49.642Z,64.70
2019-01-22T22:05:20.393Z,64.80
2019-01-22T22:07:48.889Z,65.00
2019-01-22T22:10:24.634Z,65.20
2019-01-22T22:12:53.144Z,64.60
2019-01-22T22:15:24.090Z,64.80
2019-01-22T22:17:52.517Z,64.70
2019-01-22T22:20:21.326Z,64.20
2019-01-22T22:22:49.761Z,64.80
2019-01-22T22:25:20.535Z,65.10
2019-01-22T22:27:48.967Z,64.40
2019-01-22T22:30:28.928Z,64.70
2019-01-22T22:32:58.645Z,64.50
2019-01-22T22:35:27.393Z,63.70
2019-01-22T22:37:56.041Z,63.20
2019-01-22T22:40:24.517Z,62.80
2019-01-22T22:42:52.946Z,62.70
2019-01-22T22:45:25.405Z,62.70
2019-01-22T22:47:53.940Z,63.70
2019-01-22T22:50:30.882Z,64.10
2019-01-22T22:52:59.364Z,63.60
2019-01-22T22:55:27.769Z,64.20
2019-01-22T22:57:56.208Z,64.50
2019-01-22T23:00:36.774Z,63.20
2019-01-22T23:03:06.230Z,63.10
2019-01-22T23:05:35.769Z,63.90
2019-01-22T23:08:04.783Z,65.10
2019-01-22T23:10:33.469Z,65.50
2019-01-22T23:13:01.953Z,66.00
2019-01-22T23:15:30.635Z,65.60
2019-01-22T23:17:59.437Z,65.40
2019-01-22T23:20:27.863Z,65.50
2019-01-22T23:22:56.298Z,65.20
2019-01-22T23:25:24.704Z,65.30
2019-01-22T23:27:53.184Z,65.80
2019-01-22T23:30:21.834Z,65.90
2019-01-22T23:32:50.349Z,65.40
2019-01-22T23:35:18.860Z,65.30
2019-01-22T23:37:47.289Z,65.50
2019-01-22T23:40:16.790Z,65.90
2019-01-22T23:42:45.317Z,65.80
2019-01-22T23:45:15.072Z,65.50
2019-01-22T23:47:43.777Z,64.90
2019-01-22T23:50:14.847Z,64.20
2019-01-22T23:52:43.387Z,63.30
2019-01-22T23:55:12.128Z,62.30
2019-01-22T23:57:40.641Z,62.60
